createdAt,value
2023-10-09T00:02:11.721Z,17.42
2023-10-09T00:04:43.922Z,18.58
2023-10-09T00:07:12.049Z,17.90
2023-10-09T00:09:48.766Z,18.05
2023-10-09T00:12:17.577Z,18.08
2023-10-09T00:14:49.337Z,19.20
2023-10-09T00:17:20.791Z,18.05
2023-10-09T00:19:52.519Z,17.02
2023-10-09T00:22:27.189Z,17.80
2023-10-09T00:25:11.244Z,16.77
2023-10-09T00:27:42.340Z,15.10
2023-10-09T00:30:19.856Z,16.42
2023-10-09T00:32:59.640Z,17.48
2023-10-09T00:35:59.637Z,16.70
2023-10-09T00:38:34.661Z,17.20
2023-10-09T00:41:11.949Z,16.58
2023-10-09T00:43:39.820Z,13.30
2023-10-09T00:46:25.588Z,18.90
2023-10-09T00:48:58.990Z,18.85
2023-10-09T00:51:27.078Z,20.65
2023-10-09T00:54:08.911Z,18.17
2023-10-09T00:56:40.408Z,18.75
2023-10-09T01:01:41.887Z,17.02
2023-10-09T01:04:12.165Z,16.05
2023-10-09T01:06:45.051Z,13.77
2023-10-09T01:09:17.528Z,15.18
2023-10-09T01:11:49.663Z,17.63
2023-10-09T01:14:17.095Z,14.57
2023-10-09T01:16:44.854Z,16.38
2023-10-09T01:19:20.972Z,19.15
2023-10-09T01:21:49.171Z,15.07
2023-10-09T01:24:17.622Z,12.32
2023-10-09T01:26:47.631Z,11.73
2023-10-09T01:29:15.857Z,13.60
2023-10-09T01:32:01.931Z,20.08
2023-10-09T01:34:40.582Z,15.55
2023-10-09T01:37:12.984Z,11.57
2023-10-09T01:39:43.973Z,10.15
2023-10-09T01:42:11.727Z,12.15
2023-10-09T01:44:44.780Z,15.05
2023-10-09T01:47:20.032Z,11.93
2023-10-09T01:49:50.522Z,16.70
2023-10-09T01:52:17.911Z,12.33
2023-10-09T01:54:51.603Z,12.90
2023-10-09T01:57:24.016Z,14.93
2023-10-09T01:59:54.260Z,16.38
2023-10-09T02:02:28.478Z,13.60
2023-10-09T02:05:16.157Z,15.93
2023-10-09T02:07:53.288Z,14.68
2023-10-09T02:10:30.947Z,12.60
2023-10-09T02:13:07.779Z,17.02
2023-10-09T02:15:45.325Z,12.95
2023-10-09T02:18:22.728Z,11.82
2023-10-09T02:20:57.782Z,11.65
2023-10-09T02:23:27.000Z,14.82
2023-10-09T02:26:05.845Z,14.60
2023-10-09T02:28:36.111Z,15.88
2023-10-09T02:31:11.472Z,16.33
2023-10-09T02:33:40.346Z,14.82
2023-10-09T02:36:08.352Z,14.02
2023-10-09T02:38:41.396Z,18.35
2023-10-09T02:41:08.181Z,15.13
2023-10-09T02:43:49.068Z,16.58
2023-10-09T02:46:19.704Z,16.35
2023-10-09T02:48:53.927Z,18.85
2023-10-09T02:51:27.745Z,16.83
2023-10-09T02:53:59.354Z,15.55
2023-10-09T02:56:49.341Z,19.20
2023-10-09T02:59:16.118Z,17.63
2023-10-09T03:01:42.893Z,16.83
2023-10-09T03:04:12.131Z,18.20
2023-10-09T03:06:48.991Z,19.23
2023-10-09T03:09:18.589Z,16.85
2023-10-09T03:11:54.929Z,18.42
2023-10-09T03:14:22.778Z,18.27
2023-10-09T03:16:50.227Z,18.33
2023-10-09T03:19:17.593Z,19.65
2023-10-09T03:21:44.456Z,18.15
2023-10-09T03:24:12.717Z,16.98
2023-10-09T03:26:40.058Z,18.00
2023-10-09T03:29:07.810Z,14.65
2023-10-09T03:31:34.786Z,17.42
2023-10-09T03:34:01.681Z,20.17
2023-10-09T03:36:29.970Z,18.42
2023-10-09T03:38:59.260Z,22.50
2023-10-09T03:41:30.293Z,17.98
2023-10-09T03:43:57.330Z,21.60
2023-10-09T03:46:33.664Z,16.00
2023-10-09T03:49:11.819Z,18.23
2023-10-09T03:51:38.913Z,15.93
2023-10-09T03:54:08.942Z,17.48
2023-10-09T03:56:36.327Z,18.58
2023-10-09T03:59:06.163Z,15.27
2023-10-09T04:01:39.349Z,16.73
2023-10-09T04:04:12.044Z,18.45
2023-10-09T04:06:39.244Z,14.13
2023-10-09T04:09:20.261Z,17.48
2023-10-09T04:11:47.871Z,16.85
2023-10-09T04:14:33.634Z,15.95
2023-10-09T04:17:27.149Z,14.82
2023-10-09T04:20:12.682Z,12.82
2023-10-09T04:22:43.506Z,16.20
2023-10-09T04:25:16.075Z,14.38
2023-10-09T04:27:43.057Z,13.32
2023-10-09T04:30:16.500Z,12.68
2023-10-09T04:32:46.612Z,12.23
2023-10-09T04:35:25.701Z,12.85
2023-10-09T04:38:05.867Z,15.20
2023-10-09T04:40:49.360Z,14.57
2023-10-09T04:43:22.057Z,17.73
2023-10-09T04:46:14.106Z,14.73
2023-10-09T04:48:46.921Z,14.25
2023-10-09T04:51:22.875Z,16.20
2023-10-09T04:54:08.721Z,14.55
2023-10-09T04:56:48.704Z,16.55
2023-10-09T04:59:19.571Z,17.30
2023-10-09T05:01:58.617Z,10.52
2023-10-09T05:04:41.055Z,16.83
2023-10-09T05:07:26.984Z,19.17
2023-10-09T05:09:57.042Z,12.98
2023-10-09T05:12:28.523Z,16.08
2023-10-09T05:15:10.576Z,18.27
2023-10-09T05:17:39.529Z,16.48
2023-10-09T05:20:28.307Z,18.67
2023-10-09T05:22:58.347Z,16.23
2023-10-09T05:25:47.141Z,20.90
2023-10-09T05:28:39.996Z,17.08
2023-10-09T05:31:10.141Z,16.27
2023-10-09T05:33:38.744Z,19.05
2023-10-09T05:36:18.403Z,17.55
2023-10-09T05:38:59.600Z,18.02
2023-10-09T05:41:46.864Z,16.80
2023-10-09T05:44:31.996Z,19.48
2023-10-09T05:47:17.217Z,17.90
2023-10-09T05:49:47.375Z,15.88
2023-10-09T05:52:33.244Z,20.58
2023-10-09T05:55:19.176Z,21.42
2023-10-09T05:58:04.685Z,16.30
2023-10-09T06:00:50.245Z,16.00
2023-10-09T06:03:20.163Z,18.30
2023-10-09T06:06:02.421Z,16.73
2023-10-09T06:08:43.118Z,13.85
2023-10-09T06:11:32.666Z,18.30
2023-10-09T06:14:04.542Z,16.15
2023-10-09T06:16:40.363Z,17.98
2023-10-09T06:19:14.221Z,16.83
2023-10-09T06:22:01.571Z,13.52
2023-10-09T06:24:34.792Z,15.85
2023-10-09T06:27:01.757Z,16.88
2023-10-09T06:29:45.357Z,16.48
2023-10-09T06:32:19.085Z,16.25
2023-10-09T06:35:09.133Z,13.95
2023-10-09T06:37:35.893Z,15.23
2023-10-09T06:40:31.504Z,15.40
2023-10-09T06:42:58.423Z,14.38
2023-10-09T06:45:34.019Z,15.35
2023-10-09T06:48:11.304Z,13.63
2023-10-09T06:50:57.390Z,16.83
2023-10-09T06:53:46.861Z,14.20
2023-10-09T06:56:24.379Z,15.07
2023-10-09T06:58:56.150Z,15.20
2023-10-09T07:01:29.208Z,16.15
2023-10-09T07:04:18.063Z,17.00
2023-10-09T07:06:52.682Z,15.48
2023-10-09T07:09:20.731Z,14.65
2023-10-09T07:11:50.872Z,16.45
2023-10-09T07:14:32.948Z,15.32
2023-10-09T07:17:02.967Z,18.23
2023-10-09T07:19:56.687Z,13.82
2023-10-09T07:22:23.998Z,15.48
2023-10-09T07:24:57.390Z,16.30
2023-10-09T07:27:46.726Z,16.65
2023-10-09T07:30:30.675Z,17.15
2023-10-09T07:33:05.058Z,15.25
2023-10-09T07:35:44.478Z,19.10
2023-10-09T07:38:24.502Z,18.00
2023-10-09T07:41:07.979Z,18.20
2023-10-09T07:43:45.190Z,21.52
2023-10-09T07:46:32.894Z,17.40
2023-10-09T07:49:10.331Z,20.70
2023-10-09T07:51:44.968Z,16.10
2023-10-09T07:54:16.088Z,20.95
2023-10-09T07:56:47.609Z,19.80
2023-10-09T07:59:19.382Z,14.77
2023-10-09T08:01:56.207Z,17.42
2023-10-09T08:04:40.806Z,18.08
2023-10-09T08:08:02.567Z,18.50
2023-10-09T08:10:20.306Z,17.60
2023-10-09T08:12:50.756Z,19.73
2023-10-09T08:15:21.969Z,18.77
2023-10-09T08:18:00.058Z,18.40
2023-10-09T08:20:28.333Z,16.85
2023-10-09T08:22:58.639Z,20.70
2023-10-09T08:25:27.416Z,18.05
2023-10-09T08:28:00.103Z,20.40
2023-10-09T08:30:27.549Z,17.25
2023-10-09T08:36:05.653Z,17.92
2023-10-09T08:38:35.307Z,15.73
2023-10-09T08:41:18.972Z,20.75
2023-10-09T08:43:52.344Z,19.58
2023-10-09T08:46:30.444Z,21.20
2023-10-09T08:49:00.117Z,14.65
2023-10-09T08:51:28.698Z,14.73
2023-10-09T08:53:57.493Z,16.85
2023-10-09T08:56:24.456Z,12.93
2023-10-09T08:58:52.341Z,15.95
2023-10-09T09:01:22.014Z,14.55
2023-10-09T09:03:51.583Z,11.30
2023-10-09T09:06:21.673Z,13.10
2023-10-09T09:08:48.803Z,14.15
2023-10-09T09:11:24.154Z,14.38
2023-10-09T09:13:54.163Z,15.52
2023-10-09T09:16:32.341Z,14.15
2023-10-09T09:19:11.850Z,15.43
2023-10-09T09:21:42.011Z,16.65
2023-10-09T09:24:27.628Z,17.45
2023-10-09T09:27:19.435Z,14.43
2023-10-09T09:29:53.857Z,14.45
2023-10-09T09:32:39.537Z,15.45
2023-10-09T09:35:20.785Z,13.70
2023-10-09T09:38:04.258Z,15.13
2023-10-09T09:40:35.561Z,15.05
2023-10-09T09:43:06.303Z,14.05
2023-10-09T09:45:39.398Z,17.88
2023-10-09T09:48:07.390Z,14.07
2023-10-09T09:50:38.108Z,10.60
2023-10-09T09:53:09.312Z,11.57
2023-10-09T09:55:43.180Z,15.23
2023-10-09T09:58:19.956Z,10.45
2023-10-09T10:00:53.845Z,11.57
2023-10-09T10:03:24.011Z,10.45
2023-10-09T10:05:53.508Z,12.32
2023-10-09T10:08:31.916Z,15.70
2023-10-09T10:11:05.908Z,12.02
2023-10-09T10:13:42.297Z,13.70
2023-10-09T10:16:19.745Z,12.63
2023-10-09T10:19:19.144Z,15.80
2023-10-09T10:21:55.018Z,18.27
2023-10-09T10:24:31.858Z,13.43
2023-10-09T10:27:27.313Z,14.38
2023-10-09T10:30:12.771Z,16.85
2023-10-09T10:33:13.802Z,13.88
2023-10-09T10:35:46.289Z,14.85
2023-10-09T10:38:35.307Z,11.52
2023-10-09T10:41:19.143Z,14.10
2023-10-09T10:43:53.492Z,14.48
2023-10-09T10:46:31.568Z,11.48
2023-10-09T10:49:12.951Z,13.30
2023-10-09T10:51:40.092Z,16.52
2023-10-09T10:54:28.609Z,17.65
2023-10-09T10:56:58.748Z,12.80
2023-10-09T10:59:29.575Z,12.32
2023-10-09T11:02:03.867Z,11.43
2023-10-09T11:04:31.123Z,16.17
2023-10-09T11:07:08.014Z,15.27
2023-10-09T11:10:00.534Z,12.73
2023-10-09T11:12:40.999Z,12.50
2023-10-09T11:15:09.978Z,14.65
2023-10-09T11:17:39.295Z,17.02
2023-10-09T11:20:27.858Z,17.02
2023-10-09T11:23:13.000Z,13.65
2023-10-09T11:25:51.262Z,16.55
2023-10-09T11:28:31.175Z,12.73
2023-10-09T11:31:13.759Z,17.90
2023-10-09T11:33:49.890Z,11.55
2023-10-09T11:36:17.529Z,16.17
2023-10-09T11:38:47.346Z,12.30
2023-10-09T11:41:24.325Z,13.40
2023-10-09T11:43:59.735Z,12.63
2023-10-09T11:46:50.298Z,11.75
2023-10-09T11:49:23.014Z,13.23
2023-10-09T11:52:11.518Z,14.77
2023-10-09T11:54:38.304Z,10.32
2023-10-09T11:57:05.264Z,13.45
2023-10-09T11:59:39.017Z,13.57
2023-10-09T12:02:12.987Z,12.35
2023-10-09T12:04:45.624Z,16.15
2023-10-09T12:07:13.493Z,16.63
2023-10-09T12:09:40.700Z,11.15
2023-10-09T12:12:10.169Z,14.70
2023-10-09T12:14:38.960Z,14.98
2023-10-09T12:17:06.802Z,13.73
2023-10-09T12:19:39.376Z,18.30
2023-10-09T12:22:08.075Z,15.52
2023-10-09T12:24:35.244Z,16.42
2023-10-09T12:27:02.152Z,10.60
2023-10-09T12:29:31.329Z,16.55
2023-10-09T12:32:02.528Z,15.38
2023-10-09T12:36:56.730Z,13.65
2023-10-09T12:39:23.484Z,15.75
2023-10-09T12:41:54.586Z,14.50
2023-10-09T12:44:21.499Z,15.43
2023-10-09T12:46:54.654Z,15.02
2023-10-09T12:49:26.416Z,15.02
2023-10-09T12:51:54.201Z,14.02
2023-10-09T12:54:22.723Z,15.63
2023-10-09T12:56:51.072Z,14.25
2023-10-09T12:59:19.305Z,11.38
2023-10-09T13:01:46.145Z,17.55
2023-10-09T13:04:16.501Z,12.75
2023-10-09T13:06:47.345Z,16.13
2023-10-09T13:09:36.888Z,17.05
2023-10-09T13:12:04.032Z,12.05
2023-10-09T13:14:35.261Z,14.30
2023-10-09T13:19:38.712Z,17.10
2023-10-09T13:22:14.068Z,14.18
2023-10-09T13:24:42.058Z,13.15
2023-10-09T13:27:10.873Z,14.65
2023-10-09T13:29:41.253Z,15.10
2023-10-09T13:32:15.756Z,16.57
2023-10-09T13:34:45.940Z,13.40
2023-10-09T13:37:14.871Z,18.67
2023-10-09T13:39:57.683Z,18.92
2023-10-09T13:42:27.238Z,13.55
2023-10-09T13:44:57.290Z,16.83
2023-10-09T13:47:30.465Z,12.15
2023-10-09T13:49:58.644Z,13.80
2023-10-09T13:52:25.571Z,15.30
2023-10-09T13:54:52.401Z,17.90
2023-10-09T13:57:23.443Z,15.60
2023-10-09T13:59:50.722Z,14.88
2023-10-09T14:02:22.488Z,18.20
2023-10-09T14:04:49.764Z,16.70
2023-10-09T14:07:21.491Z,14.13
2023-10-09T14:10:08.261Z,11.82
2023-10-09T14:12:40.845Z,13.85
2023-10-09T14:15:12.105Z,13.05
2023-10-09T14:17:43.536Z,14.38
2023-10-09T14:22:56.060Z,14.50
2023-10-09T14:25:23.240Z,20.05
2023-10-09T14:27:50.140Z,13.77
2023-10-09T14:30:24.433Z,17.20
2023-10-09T14:32:57.104Z,18.00
2023-10-09T14:35:27.905Z,17.17
2023-10-09T14:37:58.344Z,14.73
2023-10-09T14:40:33.945Z,16.93
2023-10-09T14:43:00.827Z,13.73
2023-10-09T14:45:27.815Z,14.25
2023-10-09T14:47:55.562Z,17.63
2023-10-09T14:50:23.496Z,15.73
2023-10-09T14:52:51.968Z,19.48
2023-10-09T14:55:22.420Z,16.20
2023-10-09T14:57:53.556Z,17.40
2023-10-09T15:00:24.444Z,16.92
2023-10-09T15:05:19.924Z,20.05
2023-10-09T15:07:47.739Z,14.98
2023-10-09T15:10:19.394Z,15.45
2023-10-09T15:12:48.306Z,17.90
2023-10-09T15:15:15.668Z,20.60
2023-10-09T15:17:49.250Z,23.02
2023-10-09T15:20:16.987Z,19.75
2023-10-09T15:22:45.070Z,17.67
2023-10-09T15:25:18.706Z,17.17
2023-10-09T15:27:45.688Z,17.38
2023-10-09T15:30:17.937Z,25.08
2023-10-09T15:32:45.552Z,19.88
2023-10-09T15:35:14.742Z,25.95
2023-10-09T15:37:43.086Z,18.77
2023-10-09T15:40:16.873Z,19.25
2023-10-09T15:42:45.116Z,19.88
2023-10-09T15:45:13.522Z,20.88
2023-10-09T15:47:40.956Z,17.38
2023-10-09T15:50:12.901Z,17.52
2023-10-09T15:52:40.429Z,16.48
2023-10-09T15:55:14.526Z,21.75
2023-10-09T15:57:42.736Z,19.25
2023-10-09T16:00:19.133Z,15.10
2023-10-09T16:02:54.403Z,20.85
2023-10-09T16:05:26.734Z,20.52
2023-10-09T16:07:54.180Z,21.33
2023-10-09T16:10:22.200Z,15.32
2023-10-09T16:12:49.302Z,18.95
2023-10-09T16:15:16.557Z,18.88
2023-10-09T16:17:46.387Z,18.05
2023-10-09T16:20:22.500Z,16.98
2023-10-09T16:22:50.744Z,18.42
2023-10-09T16:25:21.774Z,15.13
2023-10-09T16:27:48.911Z,18.00
2023-10-09T16:30:21.505Z,16.05
2023-10-09T16:32:51.949Z,21.42
2023-10-09T16:35:19.127Z,20.85
2023-10-09T16:37:50.558Z,19.00
2023-10-09T16:42:50.435Z,18.80
2023-10-09T16:45:18.840Z,23.23
2023-10-09T16:47:47.932Z,20.45
2023-10-09T16:50:18.176Z,22.23
2023-10-09T16:52:45.894Z,14.45
2023-10-09T16:55:13.168Z,20.20
2023-10-09T16:57:41.843Z,20.23
2023-10-09T17:00:30.179Z,20.15
2023-10-09T17:02:58.196Z,19.27
2023-10-09T17:05:34.156Z,17.38
2023-10-09T17:08:01.233Z,21.33
2023-10-09T17:10:32.771Z,16.75
2023-10-09T17:12:59.956Z,16.67
2023-10-09T17:15:34.168Z,20.88
2023-10-09T17:18:03.947Z,17.75
2023-10-09T17:20:31.254Z,19.10
2023-10-09T17:23:01.502Z,22.15
2023-10-09T17:25:32.107Z,22.55
2023-10-09T17:28:00.856Z,21.95
2023-10-09T17:30:33.662Z,18.17
2023-10-09T17:33:00.532Z,21.73
2023-10-09T17:35:29.163Z,17.00
2023-10-09T17:37:57.721Z,16.20
2023-10-09T17:40:27.139Z,18.40
2023-10-09T17:42:55.707Z,18.08
2023-10-09T17:45:24.372Z,15.88
2023-10-09T17:47:54.185Z,20.73
2023-10-09T17:50:22.877Z,20.13
2023-10-09T17:52:49.985Z,15.93
2023-10-09T17:55:18.734Z,22.40
2023-10-09T17:57:45.562Z,15.48
2023-10-09T18:00:23.435Z,23.52
2023-10-09T18:02:50.944Z,20.83
2023-10-09T18:05:21.137Z,20.88
2023-10-09T18:07:50.875Z,20.60
2023-10-09T18:10:18.291Z,23.02
2023-10-09T18:12:45.188Z,21.20
2023-10-09T18:15:14.614Z,24.20
2023-10-09T18:17:41.918Z,24.50
2023-10-09T18:20:09.814Z,15.13
2023-10-09T18:22:36.693Z,19.92
2023-10-09T18:25:06.820Z,18.10
2023-10-09T18:27:34.044Z,24.98
2023-10-09T18:30:00.995Z,21.08
2023-10-09T18:32:27.803Z,20.67
2023-10-09T18:34:55.132Z,21.83
2023-10-09T18:37:22.767Z,20.08
2023-10-09T18:39:49.824Z,15.82
2023-10-09T18:42:16.952Z,15.35
2023-10-09T18:44:45.187Z,21.65
2023-10-09T18:47:16.286Z,17.88
2023-10-09T18:49:43.720Z,18.95
2023-10-09T18:52:11.624Z,18.33
2023-10-09T18:54:38.686Z,18.05
2023-10-09T18:57:05.553Z,20.30
2023-10-09T18:59:32.484Z,19.02
2023-10-09T19:01:59.595Z,17.48
2023-10-09T19:04:26.510Z,23.80
2023-10-09T19:06:53.360Z,18.88
2023-10-09T19:09:23.906Z,19.60
2023-10-09T19:11:51.877Z,17.23
2023-10-09T19:14:19.375Z,20.33
2023-10-09T19:16:47.628Z,18.70
2023-10-09T19:19:15.213Z,17.58
2023-10-09T19:21:42.221Z,16.83
2023-10-09T19:24:14.879Z,17.77
2023-10-09T19:26:43.388Z,20.65
2023-10-09T19:29:12.183Z,16.02
2023-10-09T19:31:39.485Z,15.95
2023-10-09T19:34:08.618Z,14.02
2023-10-09T19:36:38.696Z,18.23
2023-10-09T19:39:05.614Z,16.25
2023-10-09T19:41:34.519Z,14.57
2023-10-09T19:44:05.298Z,19.88
2023-10-09T19:46:34.546Z,19.73
2023-10-09T19:49:02.106Z,15.10
2023-10-09T19:51:30.250Z,18.80
2023-10-09T19:53:57.093Z,14.85
2023-10-09T19:56:24.192Z,15.00
2023-10-09T19:58:53.475Z,17.92
2023-10-09T20:01:20.398Z,16.98
2023-10-09T20:03:47.278Z,17.60
2023-10-09T20:06:17.266Z,15.80
2023-10-09T20:08:44.301Z,15.90
2023-10-09T20:11:13.897Z,15.32
2023-10-09T20:13:43.003Z,14.23
2023-10-09T20:16:10.616Z,17.23
2023-10-09T20:18:40.807Z,17.20
2023-10-09T20:21:11.031Z,18.80
2023-10-09T20:23:42.362Z,15.63
2023-10-09T20:28:39.725Z,17.40
2023-10-09T20:31:07.102Z,20.92
2023-10-09T20:33:37.977Z,19.35
2023-10-09T20:36:06.069Z,14.93
2023-10-09T20:38:33.300Z,20.63
2023-10-09T20:41:00.159Z,17.42
2023-10-09T20:43:28.801Z,22.45
2023-10-09T20:45:56.140Z,20.63
2023-10-09T20:48:23.036Z,19.33
2023-10-09T20:50:49.877Z,20.10
2023-10-09T20:53:16.920Z,17.10
2023-10-09T20:55:50.686Z,22.38
2023-10-09T20:58:18.674Z,21.88
2023-10-09T21:00:46.754Z,22.52
2023-10-09T21:03:17.004Z,23.67
2023-10-09T21:05:44.382Z,23.60
2023-10-09T21:08:11.374Z,20.90
2023-10-09T21:10:38.816Z,21.33
2023-10-09T21:13:05.554Z,18.10
2023-10-09T21:15:36.045Z,18.80
2023-10-09T21:18:02.965Z,23.53
2023-10-09T21:20:31.135Z,24.10
2023-10-09T21:22:58.518Z,19.27
2023-10-09T21:25:26.784Z,20.75
2023-10-09T21:27:57.241Z,23.13
2023-10-09T21:30:25.765Z,22.03
2023-10-09T21:32:54.670Z,20.35
2023-10-09T21:35:23.178Z,25.58
2023-10-09T21:37:51.208Z,25.20
2023-10-09T21:40:29.474Z,26.20
2023-10-09T21:42:58.244Z,27.48
2023-10-09T21:45:27.151Z,30.05
2023-10-09T21:47:57.937Z,26.23
2023-10-09T21:50:26.376Z,26.33
2023-10-09T21:52:58.392Z,27.23
2023-10-09T21:55:26.623Z,30.58
2023-10-09T21:57:54.141Z,25.85
2023-10-09T22:00:32.552Z,28.73
2023-10-09T22:03:12.588Z,28.33
2023-10-09T22:05:43.640Z,28.77
2023-10-09T22:08:10.998Z,32.58
2023-10-09T22:10:38.912Z,29.60
2023-10-09T22:13:08.931Z,33.80
2023-10-09T22:15:36.121Z,32.70
2023-10-09T22:18:11.027Z,26.83
2023-10-09T22:20:39.110Z,25.70
2023-10-09T22:23:12.127Z,28.83
2023-10-09T22:25:39.058Z,30.73
2023-10-09T22:28:10.279Z,28.65
2023-10-09T22:33:06.541Z,25.30
2023-10-09T22:35:45.948Z,30.08
2023-10-09T22:38:16.715Z,29.70
2023-10-09T22:40:49.684Z,28.10
2023-10-09T22:43:21.811Z,31.27
2023-10-09T22:45:52.306Z,29.08
2023-10-09T22:48:28.132Z,27.50
2023-10-09T22:51:10.790Z,24.65
2023-10-09T22:53:39.155Z,23.67
2023-10-09T22:56:14.394Z,26.05
2023-10-09T22:58:52.079Z,24.23
2023-10-09T23:01:23.986Z,25.92
2023-10-09T23:04:09.999Z,27.73
2023-10-09T23:06:41.860Z,26.40
2023-10-09T23:09:31.730Z,29.83
2023-10-09T23:12:08.573Z,30.52
2023-10-09T23:14:36.587Z,31.88
2023-10-09T23:17:09.206Z,30.20
2023-10-09T23:19:39.235Z,27.40
2023-10-09T23:22:12.586Z,30.42
2023-10-09T23:25:03.477Z,28.67
2023-10-09T23:27:48.514Z,29.90
2023-10-09T23:30:24.200Z,29.15
2023-10-09T23:33:15.947Z,25.55
2023-10-09T23:38:21.762Z,27.45
2023-10-09T23:40:51.971Z,31.05
2023-10-09T23:43:23.178Z,33.20
2023-10-09T23:45:58.410Z,33.30
2023-10-09T23:48:28.433Z,29.70
2023-10-09T23:51:02.529Z,33.65
2023-10-09T23:53:35.113Z,26.98
2023-10-09T23:56:09.746Z,23.92
2023-10-09T23:58:38.348Z,31.83
